sensor_id;sensor_type;location;lat;lon;timestamp;temperature;humidity
72320;SHT30;60269;52.502;16.732;2023-08-17T00:00:22;18.55;80.98
72320;SHT30;60269;52.502;16.732;2023-08-17T00:04:14;18.48;81.26
72320;SHT30;60269;52.502;16.732;2023-08-17T00:07:46;18.42;81.37
72320;SHT30;60269;52.502;16.732;2023-08-17T00:11:18;18.35;81.64
72320;SHT30;60269;52.502;16.732;2023-08-17T00:14:51;18.28;81.88
72320;SHT30;60269;52.502;16.732;2023-08-17T00:18:24;18.22;82.18
72320;SHT30;60269;52.502;16.732;2023-08-17T00:21:58;18.21;82.22
72320;SHT30;60269;52.502;16.732;2023-08-17T00:25:30;18.08;82.46
72320;SHT30;60269;52.502;16.732;2023-08-17T00:29:35;17.97;82.84
72320;SHT30;60269;52.502;16.732;2023-08-17T00:33:08;17.87;83.17
72320;SHT30;60269;52.502;16.732;2023-08-17T00:36:40;17.87;83.00
72320;SHT30;60269;52.502;16.732;2023-08-17T00:40:13;17.81;83.29
72320;SHT30;60269;52.502;16.732;2023-08-17T00:43:44;17.73;83.60
72320;SHT30;60269;52.502;16.732;2023-08-17T00:47:19;17.66;84.03
72320;SHT30;60269;52.502;16.732;2023-08-17T00:50:52;17.56;84.32
72320;SHT30;60269;52.502;16.732;2023-08-17T00:54:25;17.53;84.37
72320;SHT30;60269;52.502;16.732;2023-08-17T00:57:59;17.40;84.90
72320;SHT30;60269;52.502;16.732;2023-08-17T01:01:32;17.36;85.27
72320;SHT30;60269;52.502;16.732;2023-08-17T01:05:04;17.25;85.70
72320;SHT30;60269;52.502;16.732;2023-08-17T01:08:38;17.28;85.55
72320;SHT30;60269;52.502;16.732;2023-08-17T01:12:25;17.32;85.56
72320;SHT30;60269;52.502;16.732;2023-08-17T01:16:02;17.35;85.48
72320;SHT30;60269;52.502;16.732;2023-08-17T01:19:38;17.36;85.61
72320;SHT30;60269;52.502;16.732;2023-08-17T01:23:10;17.42;85.78
72320;SHT30;60269;52.502;16.732;2023-08-17T01:26:42;17.69;84.97
72320;SHT30;60269;52.502;16.732;2023-08-17T01:30:16;18.10;83.82
72320;SHT30;60269;52.502;16.732;2023-08-17T01:33:55;18.22;83.73
72320;SHT30;60269;52.502;16.732;2023-08-17T01:37:31;18.10;83.98
72320;SHT30;60269;52.502;16.732;2023-08-17T01:41:04;18.21;84.03
72320;SHT30;60269;52.502;16.732;2023-08-17T01:44:38;18.38;83.48
72320;SHT30;60269;52.502;16.732;2023-08-17T01:48:11;18.53;83.26
72320;SHT30;60269;52.502;16.732;2023-08-17T01:51:43;18.63;82.93
72320;SHT30;60269;52.502;16.732;2023-08-17T01:55:20;18.69;82.99
72320;SHT30;60269;52.502;16.732;2023-08-17T01:58:52;18.73;83.06
72320;SHT30;60269;52.502;16.732;2023-08-17T02:02:24;18.79;83.11
72320;SHT30;60269;52.502;16.732;2023-08-17T02:05:57;18.75;83.57
72320;SHT30;60269;52.502;16.732;2023-08-17T02:09:29;18.58;84.53
72320;SHT30;60269;52.502;16.732;2023-08-17T02:13:01;18.44;85.22
72320;SHT30;60269;52.502;16.732;2023-08-17T02:16:48;18.29;86.01
72320;SHT30;60269;52.502;16.732;2023-08-17T02:20:23;18.27;86.35
72320;SHT30;60269;52.502;16.732;2023-08-17T02:23:55;18.15;87.71
72320;SHT30;60269;52.502;16.732;2023-08-17T02:27:30;17.74;90.64
72320;SHT30;60269;52.502;16.732;2023-08-17T02:31:03;17.47;92.43
72320;SHT30;60269;52.502;16.732;2023-08-17T02:34:35;17.36;93.03
72320;SHT30;60269;52.502;16.732;2023-08-17T02:38:07;17.33;93.17
72320;SHT30;60269;52.502;16.732;2023-08-17T02:41:39;17.21;94.39
72320;SHT30;60269;52.502;16.732;2023-08-17T02:45:11;17.18;95.62
72320;SHT30;60269;52.502;16.732;2023-08-17T02:48:43;17.16;96.22
72320;SHT30;60269;52.502;16.732;2023-08-17T02:52:15;17.18;96.76
72320;SHT30;60269;52.502;16.732;2023-08-17T02:55:47;17.19;97.06
72320;SHT30;60269;52.502;16.732;2023-08-17T02:59:19;17.21;97.00
72320;SHT30;60269;52.502;16.732;2023-08-17T03:02:51;17.19;97.16
72320;SHT30;60269;52.502;16.732;2023-08-17T03:06:24;17.11;97.24
72320;SHT30;60269;52.502;16.732;2023-08-17T03:09:56;17.10;97.52
72320;SHT30;60269;52.502;16.732;2023-08-17T03:13:28;17.04;97.71
72320;SHT30;60269;52.502;16.732;2023-08-17T03:17:01;17.01;97.76
72320;SHT30;60269;52.502;16.732;2023-08-17T03:20:32;16.94;98.15
72320;SHT30;60269;52.502;16.732;2023-08-17T03:24:05;16.85;98.02
72320;SHT30;60269;52.502;16.732;2023-08-17T03:27:37;16.77;97.66
72320;SHT30;60269;52.502;16.732;2023-08-17T03:31:09;16.64;98.10
72320;SHT30;60269;52.502;16.732;2023-08-17T03:34:41;16.59;98.67
72320;SHT30;60269;52.502;16.732;2023-08-17T03:38:14;16.60;98.80
72320;SHT30;60269;52.502;16.732;2023-08-17T03:41:46;16.53;99.02
72320;SHT30;60269;52.502;16.732;2023-08-17T03:45:18;16.50;99.14
72320;SHT30;60269;52.502;16.732;2023-08-17T03:48:50;16.49;99.43
72320;SHT30;60269;52.502;16.732;2023-08-17T03:52:22;16.54;99.61
72320;SHT30;60269;52.502;16.732;2023-08-17T03:55:54;16.54;99.54
72320;SHT30;60269;52.502;16.732;2023-08-17T03:59:26;16.60;99.74
72320;SHT30;60269;52.502;16.732;2023-08-17T04:02:58;16.64;99.86
72320;SHT30;60269;52.502;16.732;2023-08-17T04:06:30;16.83;99.38
72320;SHT30;60269;52.502;16.732;2023-08-17T04:10:03;16.80;99.14
72320;SHT30;60269;52.502;16.732;2023-08-17T04:13:36;16.77;99.49
72320;SHT30;60269;52.502;16.732;2023-08-17T04:17:08;16.77;99.46
72320;SHT30;60269;52.502;16.732;2023-08-17T04:20:40;16.71;99.47
72320;SHT30;60269;52.502;16.732;2023-08-17T04:24:11;16.64;99.33
72320;SHT30;60269;52.502;16.732;2023-08-17T04:27:43;16.56;99.54
72320;SHT30;60269;52.502;16.732;2023-08-17T04:31:16;16.54;99.70
72320;SHT30;60269;52.502;16.732;2023-08-17T04:34:49;16.68;99.68
72320;SHT30;60269;52.502;16.732;2023-08-17T04:38:24;16.61;99.15
72320;SHT30;60269;52.502;16.732;2023-08-17T04:41:56;16.57;99.59
72320;SHT30;60269;52.502;16.732;2023-08-17T04:45:28;16.56;99.34
72320;SHT30;60269;52.502;16.732;2023-08-17T04:49:00;16.43;99.07
72320;SHT30;60269;52.502;16.732;2023-08-17T04:52:32;16.36;99.29
72320;SHT30;60269;52.502;16.732;2023-08-17T04:56:04;16.23;99.02
72320;SHT30;60269;52.502;16.732;2023-08-17T04:59:36;16.15;99.02
72320;SHT30;60269;52.502;16.732;2023-08-17T05:03:08;16.08;99.08
72320;SHT30;60269;52.502;16.732;2023-08-17T05:06:55;16.02;98.99
72320;SHT30;60269;52.502;16.732;2023-08-17T05:10:27;15.96;99.02
72320;SHT30;60269;52.502;16.732;2023-08-17T05:13:59;15.92;98.91
72320;SHT30;60269;52.502;16.732;2023-08-17T05:17:31;15.89;98.95
72320;SHT30;60269;52.502;16.732;2023-08-17T05:21:03;15.85;98.93
72320;SHT30;60269;52.502;16.732;2023-08-17T05:24:35;15.88;98.87
72320;SHT30;60269;52.502;16.732;2023-08-17T05:28:07;15.86;98.83
72320;SHT30;60269;52.502;16.732;2023-08-17T05:31:39;15.89;98.83
72320;SHT30;60269;52.502;16.732;2023-08-17T05:35:13;15.95;98.78
72320;SHT30;60269;52.502;16.732;2023-08-17T05:38:45;15.94;98.71
72320;SHT30;60269;52.502;16.732;2023-08-17T05:42:17;15.98;98.88
72320;SHT30;60269;52.502;16.732;2023-08-17T05:45:49;15.98;98.66
72320;SHT30;60269;52.502;16.732;2023-08-17T05:49:20;15.98;98.63
72320;SHT30;60269;52.502;16.732;2023-08-17T05:52:52;15.99;98.70
72320;SHT30;60269;52.502;16.732;2023-08-17T05:56:26;15.96;98.61
72320;SHT30;60269;52.502;16.732;2023-08-17T05:59:59;15.98;98.55
72320;SHT30;60269;52.502;16.732;2023-08-17T06:03:31;15.98;98.41
72320;SHT30;60269;52.502;16.732;2023-08-17T06:07:04;16.04;98.73
72320;SHT30;60269;52.502;16.732;2023-08-17T06:10:36;15.88;98.91
72320;SHT30;60269;52.502;16.732;2023-08-17T06:14:44;15.85;99.80
72320;SHT30;60269;52.502;16.732;2023-08-17T06:18:16;15.84;99.55
72320;SHT30;60269;52.502;16.732;2023-08-17T06:21:48;15.85;99.77
72320;SHT30;60269;52.502;16.732;2023-08-17T06:25:20;15.92;99.71
72320;SHT30;60269;52.502;16.732;2023-08-17T06:28:51;15.94;99.73
72320;SHT30;60269;52.502;16.732;2023-08-17T06:32:24;15.99;99.56
72320;SHT30;60269;52.502;16.732;2023-08-17T06:35:56;16.09;99.33
72320;SHT30;60269;52.502;16.732;2023-08-17T06:39:28;16.15;99.48
72320;SHT30;60269;52.502;16.732;2023-08-17T06:43:00;16.23;99.43
72320;SHT30;60269;52.502;16.732;2023-08-17T06:46:32;16.29;99.00
72320;SHT30;60269;52.502;16.732;2023-08-17T06:50:04;16.26;98.27
72320;SHT30;60269;52.502;16.732;2023-08-17T06:53:36;16.40;98.01
72320;SHT30;60269;52.502;16.732;2023-08-17T06:57:08;16.53;97.63
72320;SHT30;60269;52.502;16.732;2023-08-17T07:00:40;16.65;97.00
72320;SHT30;60269;52.502;16.732;2023-08-17T07:04:12;16.75;95.99
72320;SHT30;60269;52.502;16.732;2023-08-17T07:07:44;16.89;95.80
72320;SHT30;60269;52.502;16.732;2023-08-17T07:11:16;16.96;95.18
72320;SHT30;60269;52.502;16.732;2023-08-17T07:14:49;17.05;95.01
72320;SHT30;60269;52.502;16.732;2023-08-17T07:18:20;17.18;94.14
72320;SHT30;60269;52.502;16.732;2023-08-17T07:21:52;17.29;92.72
72320;SHT30;60269;52.502;16.732;2023-08-17T07:25:25;17.47;92.04
72320;SHT30;60269;52.502;16.732;2023-08-17T07:28:57;17.69;91.27
72320;SHT30;60269;52.502;16.732;2023-08-17T07:32:29;17.90;89.89
72320;SHT30;60269;52.502;16.732;2023-08-17T07:36:01;18.07;88.24
72320;SHT30;60269;52.502;16.732;2023-08-17T07:39:33;18.31;88.03
72320;SHT30;60269;52.502;16.732;2023-08-17T07:43:05;18.51;87.75
72320;SHT30;60269;52.502;16.732;2023-08-17T07:46:37;18.76;86.58
72320;SHT30;60269;52.502;16.732;2023-08-17T07:50:10;18.92;87.28
72320;SHT30;60269;52.502;16.732;2023-08-17T07:53:41;19.27;86.28
72320;SHT30;60269;52.502;16.732;2023-08-17T07:57:14;19.52;83.87
72320;SHT30;60269;52.502;16.732;2023-08-17T08:00:45;19.82;82.88
72320;SHT30;60269;52.502;16.732;2023-08-17T08:04:17;20.29;81.05
72320;SHT30;60269;52.502;16.732;2023-08-17T08:07:50;20.82;79.91
72320;SHT30;60269;52.502;16.732;2023-08-17T08:11:22;21.42;79.09
72320;SHT30;60269;52.502;16.732;2023-08-17T08:14:54;22.04;76.53
72320;SHT30;60269;52.502;16.732;2023-08-17T08:18:29;22.34;74.11
72320;SHT30;60269;52.502;16.732;2023-08-17T08:22:00;22.51;72.97
72320;SHT30;60269;52.502;16.732;2023-08-17T08:25:34;23.45;71.31
72320;SHT30;60269;52.502;16.732;2023-08-17T08:29:07;24.12;67.58
72320;SHT30;60269;52.502;16.732;2023-08-17T08:32:39;24.89;62.80
72320;SHT30;60269;52.502;16.732;2023-08-17T08:36:11;25.69;64.08
72320;SHT30;60269;52.502;16.732;2023-08-17T08:39:50;26.18;61.39
72320;SHT30;60269;52.502;16.732;2023-08-17T08:43:25;26.05;60.51
72320;SHT30;60269;52.502;16.732;2023-08-17T08:46:58;26.05;60.08
72320;SHT30;60269;52.502;16.732;2023-08-17T08:50:31;26.01;60.34
72320;SHT30;60269;52.502;16.732;2023-08-17T08:54:05;25.97;59.34
72320;SHT30;60269;52.502;16.732;2023-08-17T08:57:42;25.59;61.36
72320;SHT30;60269;52.502;16.732;2023-08-17T09:01:16;25.49;61.46
72320;SHT30;60269;52.502;16.732;2023-08-17T09:04:49;25.60;61.19
72320;SHT30;60269;52.502;16.732;2023-08-17T09:08:24;25.98;59.56
72320;SHT30;60269;52.502;16.732;2023-08-17T09:11:58;26.04;58.81
72320;SHT30;60269;52.502;16.732;2023-08-17T09:15:30;25.87;58.75
72320;SHT30;60269;52.502;16.732;2023-08-17T09:19:03;25.54;58.92
72320;SHT30;60269;52.502;16.732;2023-08-17T09:22:43;25.37;60.40
72320;SHT30;60269;52.502;16.732;2023-08-17T09:26:15;25.50;60.24
72320;SHT30;60269;52.502;16.732;2023-08-17T09:29:49;25.29;60.00
72320;SHT30;60269;52.502;16.732;2023-08-17T09:33:27;25.36;60.94
72320;SHT30;60269;52.502;16.732;2023-08-17T09:37:03;25.84;59.30
72320;SHT30;60269;52.502;16.732;2023-08-17T09:40:36;26.33;58.49
72320;SHT30;60269;52.502;16.732;2023-08-17T09:44:08;26.22;59.74
72320;SHT30;60269;52.502;16.732;2023-08-17T09:47:42;26.06;57.98
72320;SHT30;60269;52.502;16.732;2023-08-17T09:51:15;26.15;58.06
72320;SHT30;60269;52.502;16.732;2023-08-17T09:54:47;26.38;56.38
72320;SHT30;60269;52.502;16.732;2023-08-17T09:58:19;26.70;56.99
72320;SHT30;60269;52.502;16.732;2023-08-17T10:01:52;26.73;57.10
72320;SHT30;60269;52.502;16.732;2023-08-17T10:05:28;27.00;56.15
72320;SHT30;60269;52.502;16.732;2023-08-17T10:09:01;27.06;56.42
72320;SHT30;60269;52.502;16.732;2023-08-17T10:12:44;27.21;56.14
72320;SHT30;60269;52.502;16.732;2023-08-17T10:16:23;27.45;55.50
72320;SHT30;60269;52.502;16.732;2023-08-17T10:20:02;27.69;55.42
72320;SHT30;60269;52.502;16.732;2023-08-17T10:23:34;27.92;54.61
72320;SHT30;60269;52.502;16.732;2023-08-17T10:27:14;27.49;54.97
72320;SHT30;60269;52.502;16.732;2023-08-17T10:30:47;26.72;57.70
72320;SHT30;60269;52.502;16.732;2023-08-17T10:34:20;26.87;57.21
72320;SHT30;60269;52.502;16.732;2023-08-17T10:37:52;27.76;55.77
72320;SHT30;60269;52.502;16.732;2023-08-17T10:41:25;28.34;53.55
72320;SHT30;60269;52.502;16.732;2023-08-17T10:44:57;28.39;54.56
72320;SHT30;60269;52.502;16.732;2023-08-17T10:48:30;28.92;52.88
72320;SHT30;60269;52.502;16.732;2023-08-17T10:52:07;28.91;52.87
72320;SHT30;60269;52.502;16.732;2023-08-17T10:55:41;29.42;52.07
72320;SHT30;60269;52.502;16.732;2023-08-17T10:59:24;30.01;50.24
72320;SHT30;60269;52.502;16.732;2023-08-17T11:03:04;30.97;48.59
72320;SHT30;60269;52.502;16.732;2023-08-17T11:06:42;31.51;48.06
72320;SHT30;60269;52.502;16.732;2023-08-17T11:13:54;32.44;45.00
72320;SHT30;60269;52.502;16.732;2023-08-17T11:17:28;32.28;46.17
72320;SHT30;60269;52.502;16.732;2023-08-17T11:21:05;32.30;45.95
72320;SHT30;60269;52.502;16.732;2023-08-17T11:24:38;32.94;45.12
72320;SHT30;60269;52.502;16.732;2023-08-17T11:28:13;32.71;45.76
72320;SHT30;60269;52.502;16.732;2023-08-17T11:31:50;32.88;45.00
72320;SHT30;60269;52.502;16.732;2023-08-17T11:35:22;32.75;45.49
72320;SHT30;60269;52.502;16.732;2023-08-17T11:39:02;33.15;44.82
72320;SHT30;60269;52.502;16.732;2023-08-17T11:42:36;32.63;46.28
72320;SHT30;60269;52.502;16.732;2023-08-17T11:46:08;33.30;45.06
72320;SHT30;60269;52.502;16.732;2023-08-17T11:49:40;32.58;46.27
72320;SHT30;60269;52.502;16.732;2023-08-17T11:53:16;32.74;46.34
72320;SHT30;60269;52.502;16.732;2023-08-17T11:56:48;33.26;45.11
72320;SHT30;60269;52.502;16.732;2023-08-17T12:00:21;33.84;44.69
72320;SHT30;60269;52.502;16.732;2023-08-17T12:03:53;34.39;43.12
72320;SHT30;60269;52.502;16.732;2023-08-17T12:07:26;34.01;43.97
72320;SHT30;60269;52.502;16.732;2023-08-17T12:10:59;34.49;43.61
72320;SHT30;60269;52.502;16.732;2023-08-17T12:14:31;34.72;42.77
72320;SHT30;60269;52.502;16.732;2023-08-17T12:18:03;34.42;43.21
72320;SHT30;60269;52.502;16.732;2023-08-17T12:21:36;34.52;42.84
72320;SHT30;60269;52.502;16.732;2023-08-17T12:25:09;34.85;42.87
72320;SHT30;60269;52.502;16.732;2023-08-17T12:28:41;35.00;42.41
72320;SHT30;60269;52.502;16.732;2023-08-17T12:32:17;35.30;42.18
72320;SHT30;60269;52.502;16.732;2023-08-17T12:35:49;35.58;42.17
72320;SHT30;60269;52.502;16.732;2023-08-17T12:39:22;35.81;40.64
72320;SHT30;60269;52.502;16.732;2023-08-17T12:42:53;36.00;40.61
72320;SHT30;60269;52.502;16.732;2023-08-17T12:46:26;36.08;40.56
72320;SHT30;60269;52.502;16.732;2023-08-17T12:50:03;36.57;39.90
72320;SHT30;60269;52.502;16.732;2023-08-17T12:53:37;36.64;39.89
72320;SHT30;60269;52.502;16.732;2023-08-17T12:57:09;36.13;41.06
72320;SHT30;60269;52.502;16.732;2023-08-17T13:00:44;36.19;41.26
72320;SHT30;60269;52.502;16.732;2023-08-17T13:04:16;36.88;40.38
72320;SHT30;60269;52.502;16.732;2023-08-17T13:07:49;37.29;38.71
72320;SHT30;60269;52.502;16.732;2023-08-17T13:11:21;37.72;38.51
72320;SHT30;60269;52.502;16.732;2023-08-17T13:14:56;37.42;38.97
72320;SHT30;60269;52.502;16.732;2023-08-17T13:18:28;37.36;39.05
72320;SHT30;60269;52.502;16.732;2023-08-17T13:22:00;37.07;39.30
72320;SHT30;60269;52.502;16.732;2023-08-17T13:25:34;37.31;39.87
72320;SHT30;60269;52.502;16.732;2023-08-17T13:29:06;37.65;38.53
72320;SHT30;60269;52.502;16.732;2023-08-17T13:32:38;37.47;38.41
72320;SHT30;60269;52.502;16.732;2023-08-17T13:36:11;37.79;38.34
72320;SHT30;60269;52.502;16.732;2023-08-17T13:39:44;38.04;38.55
72320;SHT30;60269;52.502;16.732;2023-08-17T13:43:16;37.62;38.61
72320;SHT30;60269;52.502;16.732;2023-08-17T13:46:48;37.41;39.08
72320;SHT30;60269;52.502;16.732;2023-08-17T13:50:20;37.82;38.78
72320;SHT30;60269;52.502;16.732;2023-08-17T13:53:53;38.10;38.19
72320;SHT30;60269;52.502;16.732;2023-08-17T13:57:25;38.10;38.10
72320;SHT30;60269;52.502;16.732;2023-08-17T14:00:57;38.20;37.61
72320;SHT30;60269;52.502;16.732;2023-08-17T14:04:29;37.63;39.19
72320;SHT30;60269;52.502;16.732;2023-08-17T14:08:01;37.97;38.70
72320;SHT30;60269;52.502;16.732;2023-08-17T14:11:34;38.38;37.60
72320;SHT30;60269;52.502;16.732;2023-08-17T14:15:06;38.62;37.75
72320;SHT30;60269;52.502;16.732;2023-08-17T14:18:39;38.41;37.67
72320;SHT30;60269;52.502;16.732;2023-08-17T14:22:11;38.49;37.86
72320;SHT30;60269;52.502;16.732;2023-08-17T14:25:43;38.31;38.42
72320;SHT30;60269;52.502;16.732;2023-08-17T14:29:14;38.00;38.37
72320;SHT30;60269;52.502;16.732;2023-08-17T14:32:47;37.51;38.91
72320;SHT30;60269;52.502;16.732;2023-08-17T14:36:19;37.87;38.83
72320;SHT30;60269;52.502;16.732;2023-08-17T14:39:52;37.74;39.47
72320;SHT30;60269;52.502;16.732;2023-08-17T14:43:23;37.72;39.63
72320;SHT30;60269;52.502;16.732;2023-08-17T14:46:56;37.39;39.43
72320;SHT30;60269;52.502;16.732;2023-08-17T14:50:28;37.04;40.29
72320;SHT30;60269;52.502;16.732;2023-08-17T14:54:06;37.47;39.51
72320;SHT30;60269;52.502;16.732;2023-08-17T14:57:44;37.18;40.03
72320;SHT30;60269;52.502;16.732;2023-08-17T15:01:17;36.71;41.26
72320;SHT30;60269;52.502;16.732;2023-08-17T15:04:49;36.92;40.56
72320;SHT30;60269;52.502;16.732;2023-08-17T15:08:22;36.85;41.05
72320;SHT30;60269;52.502;16.732;2023-08-17T15:11:57;37.43;40.15
72320;SHT30;60269;52.502;16.732;2023-08-17T15:15:29;37.46;39.98
72320;SHT30;60269;52.502;16.732;2023-08-17T15:19:01;37.05;40.26
72320;SHT30;60269;52.502;16.732;2023-08-17T15:22:34;36.90;40.23
72320;SHT30;60269;52.502;16.732;2023-08-17T15:26:06;36.84;40.52
72320;SHT30;60269;52.502;16.732;2023-08-17T15:29:39;36.98;40.65
72320;SHT30;60269;52.502;16.732;2023-08-17T15:33:13;37.04;40.77
72320;SHT30;60269;52.502;16.732;2023-08-17T15:36:46;37.19;40.09
72320;SHT30;60269;52.502;16.732;2023-08-17T15:40:18;36.98;40.52
72320;SHT30;60269;52.502;16.732;2023-08-17T15:43:50;36.98;41.01
72320;SHT30;60269;52.502;16.732;2023-08-17T15:47:22;37.24;40.41
72320;SHT30;60269;52.502;16.732;2023-08-17T15:50:54;37.46;39.64
72320;SHT30;60269;52.502;16.732;2023-08-17T15:54:26;37.34;39.95
72320;SHT30;60269;52.502;16.732;2023-08-17T15:58:08;36.67;40.83
72320;SHT30;60269;52.502;16.732;2023-08-17T16:01:41;36.94;40.59
72320;SHT30;60269;52.502;16.732;2023-08-17T16:05:13;36.81;40.74
72320;SHT30;60269;52.502;16.732;2023-08-17T16:08:45;36.76;41.38
72320;SHT30;60269;52.502;16.732;2023-08-17T16:12:20;36.15;42.34
72320;SHT30;60269;52.502;16.732;2023-08-17T16:15:52;36.26;42.26
72320;SHT30;60269;52.502;16.732;2023-08-17T16:19:24;36.47;41.74
72320;SHT30;60269;52.502;16.732;2023-08-17T16:22:57;35.74;42.88
72320;SHT30;60269;52.502;16.732;2023-08-17T16:26:29;35.37;43.73
72320;SHT30;60269;52.502;16.732;2023-08-17T16:30:06;35.26;44.00
72320;SHT30;60269;52.502;16.732;2023-08-17T16:33:38;34.89;44.57
72320;SHT30;60269;52.502;16.732;2023-08-17T16:37:13;34.25;45.92
72320;SHT30;60269;52.502;16.732;2023-08-17T16:40:46;33.94;46.74
72320;SHT30;60269;52.502;16.732;2023-08-17T16:44:19;33.27;48.08
72320;SHT30;60269;52.502;16.732;2023-08-17T16:47:51;32.54;50.23
72320;SHT30;60269;52.502;16.732;2023-08-17T16:51:23;32.13;51.08
72320;SHT30;60269;52.502;16.732;2023-08-17T16:54:55;32.47;50.41
72320;SHT30;60269;52.502;16.732;2023-08-17T16:58:27;32.36;51.05
72320;SHT30;60269;52.502;16.732;2023-08-17T17:02:00;31.39;53.44
72320;SHT30;60269;52.502;16.732;2023-08-17T17:05:32;30.24;56.29
72320;SHT30;60269;52.502;16.732;2023-08-17T17:09:05;29.60;57.90
72320;SHT30;60269;52.502;16.732;2023-08-17T17:12:39;29.06;59.88
72320;SHT30;60269;52.502;16.732;2023-08-17T17:16:14;28.61;61.23
72320;SHT30;60269;52.502;16.732;2023-08-17T17:19:46;28.13;62.84
72320;SHT30;60269;52.502;16.732;2023-08-17T17:23:19;27.70;63.99
72320;SHT30;60269;52.502;16.732;2023-08-17T17:26:51;27.58;64.37
72320;SHT30;60269;52.502;16.732;2023-08-17T17:30:23;27.52;64.90
72320;SHT30;60269;52.502;16.732;2023-08-17T17:33:56;27.51;64.91
72320;SHT30;60269;52.502;16.732;2023-08-17T17:37:28;27.03;66.41
72320;SHT30;60269;52.502;16.732;2023-08-17T17:41:00;26.90;66.90
72320;SHT30;60269;52.502;16.732;2023-08-17T17:44:32;26.60;68.13
72320;SHT30;60269;52.502;16.732;2023-08-17T17:48:04;26.00;70.18
72320;SHT30;60269;52.502;16.732;2023-08-17T17:51:37;25.54;71.52
72320;SHT30;60269;52.502;16.732;2023-08-17T17:55:09;25.20;73.02
72320;SHT30;60269;52.502;16.732;2023-08-17T17:58:41;24.94;73.76
72320;SHT30;60269;52.502;16.732;2023-08-17T18:02:13;24.72;74.82
72320;SHT30;60269;52.502;16.732;2023-08-17T18:05:46;24.51;75.37
72320;SHT30;60269;52.502;16.732;2023-08-17T18:09:19;24.26;76.29
72320;SHT30;60269;52.502;16.732;2023-08-17T18:12:51;23.97;77.50
72320;SHT30;60269;52.502;16.732;2023-08-17T18:16:24;23.75;78.47
72320;SHT30;60269;52.502;16.732;2023-08-17T18:19:58;23.49;79.59
72320;SHT30;60269;52.502;16.732;2023-08-17T18:23:32;23.42;79.96
72320;SHT30;60269;52.502;16.732;2023-08-17T18:27:04;23.24;80.90
72320;SHT30;60269;52.502;16.732;2023-08-17T18:30:36;23.04;81.63
72320;SHT30;60269;52.502;16.732;2023-08-17T18:34:08;22.93;82.33
72320;SHT30;60269;52.502;16.732;2023-08-17T18:37:40;22.74;83.18
72320;SHT30;60269;52.502;16.732;2023-08-17T18:41:13;22.63;83.65
72320;SHT30;60269;52.502;16.732;2023-08-17T18:44:45;22.52;83.81
72320;SHT30;60269;52.502;16.732;2023-08-17T18:48:17;22.41;84.06
72320;SHT30;60269;52.502;16.732;2023-08-17T18:51:49;22.24;84.42
72320;SHT30;60269;52.502;16.732;2023-08-17T18:55:22;22.19;84.62
72320;SHT30;60269;52.502;16.732;2023-08-17T18:58:54;22.16;84.46
72320;SHT30;60269;52.502;16.732;2023-08-17T19:02:29;22.12;84.79
72320;SHT30;60269;52.502;16.732;2023-08-17T19:06:01;22.05;84.90
72320;SHT30;60269;52.502;16.732;2023-08-17T19:09:34;21.95;85.12
72320;SHT30;60269;52.502;16.732;2023-08-17T19:13:06;21.83;85.60
72320;SHT30;60269;52.502;16.732;2023-08-17T19:16:38;21.76;85.69
72320;SHT30;60269;52.502;16.732;2023-08-17T19:20:10;21.63;85.86
72320;SHT30;60269;52.502;16.732;2023-08-17T19:23:43;21.53;86.05
72320;SHT30;60269;52.502;16.732;2023-08-17T19:27:15;21.49;86.22
72320;SHT30;60269;52.502;16.732;2023-08-17T19:30:47;21.46;86.30
72320;SHT30;60269;52.502;16.732;2023-08-17T19:34:19;21.39;86.56
72320;SHT30;60269;52.502;16.732;2023-08-17T19:37:53;21.33;87.03
72320;SHT30;60269;52.502;16.732;2023-08-17T19:41:26;21.23;87.09
72320;SHT30;60269;52.502;16.732;2023-08-17T19:44:58;21.13;87.59
72320;SHT30;60269;52.502;16.732;2023-08-17T19:48:30;21.03;87.71
72320;SHT30;60269;52.502;16.732;2023-08-17T19:52:04;20.99;88.07
72320;SHT30;60269;52.502;16.732;2023-08-17T19:55:37;20.89;88.11
72320;SHT30;60269;52.502;16.732;2023-08-17T19:59:11;20.78;88.60
72320;SHT30;60269;52.502;16.732;2023-08-17T20:02:43;20.71;89.11
72320;SHT30;60269;52.502;16.732;2023-08-17T20:06:16;20.61;89.60
72320;SHT30;60269;52.502;16.732;2023-08-17T20:09:49;20.58;89.60
72320;SHT30;60269;52.502;16.732;2023-08-17T20:13:21;20.55;89.66
72320;SHT30;60269;52.502;16.732;2023-08-17T20:16:54;20.50;90.27
72320;SHT30;60269;52.502;16.732;2023-08-17T20:20:26;20.43;90.15
72320;SHT30;60269;52.502;16.732;2023-08-17T20:23:58;20.43;90.60
72320;SHT30;60269;52.502;16.732;2023-08-17T20:27:32;20.37;90.63
72320;SHT30;60269;52.502;16.732;2023-08-17T20:31:04;20.31;91.04
72320;SHT30;60269;52.502;16.732;2023-08-17T20:34:37;20.26;91.28
72320;SHT30;60269;52.502;16.732;2023-08-17T20:38:10;20.16;91.59
72320;SHT30;60269;52.502;16.732;2023-08-17T20:41:43;20.19;91.81
72320;SHT30;60269;52.502;16.732;2023-08-17T20:45:15;20.26;91.37
72320;SHT30;60269;52.502;16.732;2023-08-17T20:48:48;20.24;91.30
72320;SHT30;60269;52.502;16.732;2023-08-17T20:52:21;20.26;91.03
72320;SHT30;60269;52.502;16.732;2023-08-17T20:55:53;20.20;91.36
72320;SHT30;60269;52.502;16.732;2023-08-17T20:59:25;20.10;91.47
72320;SHT30;60269;52.502;16.732;2023-08-17T21:02:58;20.05;91.58
72320;SHT30;60269;52.502;16.732;2023-08-17T21:06:30;20.00;91.80
72320;SHT30;60269;52.502;16.732;2023-08-17T21:10:02;19.94;91.97
72320;SHT30;60269;52.502;16.732;2023-08-17T21:13:34;20.06;91.34
72320;SHT30;60269;52.502;16.732;2023-08-17T21:17:07;20.10;90.91
72320;SHT30;60269;52.502;16.732;2023-08-17T21:20:40;20.10;90.57
72320;SHT30;60269;52.502;16.732;2023-08-17T21:24:12;20.12;90.17
72320;SHT30;60269;52.502;16.732;2023-08-17T21:27:46;20.09;90.20
72320;SHT30;60269;52.502;16.732;2023-08-17T21:31:18;20.00;90.12
72320;SHT30;60269;52.502;16.732;2023-08-17T21:34:50;20.00;90.20
72320;SHT30;60269;52.502;16.732;2023-08-17T21:38:23;19.87;90.40
72320;SHT30;60269;52.502;16.732;2023-08-17T21:41:55;19.81;90.55
72320;SHT30;60269;52.502;16.732;2023-08-17T21:45:27;19.73;90.78
72320;SHT30;60269;52.502;16.732;2023-08-17T21:48:59;19.65;91.17
72320;SHT30;60269;52.502;16.732;2023-08-17T21:52:31;19.58;91.42
72320;SHT30;60269;52.502;16.732;2023-08-17T21:56:05;19.57;91.58
72320;SHT30;60269;52.502;16.732;2023-08-17T21:59:37;19.57;91.33
72320;SHT30;60269;52.502;16.732;2023-08-17T22:03:12;19.61;91.09
72320;SHT30;60269;52.502;16.732;2023-08-17T22:06:44;19.68;90.55